Time;durP1;ratioP1;P1;durP2;ratioP2;P2;SDS_P1;SDS_P2;PMS_P1;PMS_P2;Temp;Humidity;BMP_temperature;BMP_pressure;BME280_temperature;BME280_humidity;BME280_pressure;Samples;Min_cycle;Max_cycle;Signal;HPM_P1;HPM_P2
2023/12/16 00:02:09;;;;;;;23.35;9.00;;;;;;;;;;5073117;28;20500;-72
2023/12/16 00:04:35;;;;;;;25.17;8.82;;;;;;;;;;5073014;28;20037;-72
2023/12/16 00:07:08;;;;;;;27.73;9.38;;;;;;;;;;5072708;28;20060;-72
2023/12/16 00:09:40;;;;;;;24.50;8.93;;;;;;;;;;5072975;28;20072;-72
2023/12/16 00:12:09;;;;;;;25.00;8.98;;;;;;;;;;5073005;28;20074;-72
2023/12/16 00:14:41;;;;;;;32.35;9.40;;;;;;;;;;5073019;28;20035;-72
2023/12/16 00:17:12;;;;;;;19.87;8.30;;;;;;;;;;5072899;28;20028;-72
2023/12/16 00:19:41;;;;;;;27.58;9.05;;;;;;;;;;5072850;28;20025;-72
2023/12/16 00:22:11;;;;;;;20.73;8.35;;;;;;;;;;5072900;28;20056;-72
2023/12/16 00:24:42;;;;;;;23.92;8.68;;;;;;;;;;5072767;28;20074;-72
2023/12/16 00:27:13;;;;;;;19.70;8.02;;;;;;;;;;5072879;28;20482;-72
2023/12/16 00:29:39;;;;;;;19.88;8.48;;;;;;;;;;5072861;28;20086;-72
2023/12/16 00:32:08;;;;;;;26.45;8.82;;;;;;;;;;5072269;28;20382;-72
2023/12/16 00:34:37;;;;;;;23.73;8.82;;;;;;;;;;5072443;28;20091;-72
2023/12/16 00:37:08;;;;;;;26.27;8.90;;;;;;;;;;5072388;28;20063;-72
2023/12/16 00:39:37;;;;;;;26.77;8.30;;;;;;;;;;5072520;28;20032;-72
2023/12/16 00:42:07;;;;;;;22.17;8.52;;;;;;;;;;5073565;28;20036;-72
2023/12/16 00:44:36;;;;;;;26.88;8.82;;;;;;;;;;5076413;28;20029;-72
2023/12/16 00:47:05;;;;;;;24.02;8.40;;;;;;;;;;5075957;28;20473;-72
2023/12/16 00:49:34;;;;;;;20.42;7.93;;;;;;;;;;5076229;28;20028;-72
2023/12/16 00:52:03;;;;;;;24.05;8.27;;;;;;;;;;5076151;28;20024;-72
2023/12/16 00:54:32;;;;;;;22.02;8.48;;;;;;;;;;5076207;28;20371;-73
2023/12/16 00:57:01;;;;;;;25.27;8.18;;;;;;;;;;5076083;28;20063;-72
2023/12/16 00:59:32;;;;;;;27.45;8.23;;;;;;;;;;5075917;28;20075;-72
2023/12/16 01:02:01;;;;;;;21.42;8.02;;;;;;;;;;5076308;28;20474;-72
2023/12/16 01:04:30;;;;;;;21.38;7.97;;;;;;;;;;5076087;28;20323;-72
2023/12/16 01:06:59;;;;;;;20.98;7.47;;;;;;;;;;5076094;28;20482;-72
2023/12/16 01:09:28;;;;;;;24.38;8.45;;;;;;;;;;5075916;28;20029;-72
2023/12/16 01:12:00;;;;;;;24.38;8.85;;;;;;;;;;5075735;28;20074;-73
2023/12/16 01:14:29;;;;;;;19.52;8.10;;;;;;;;;;5075687;28;20024;-72
2023/12/16 01:16:58;;;;;;;17.48;7.45;;;;;;;;;;5075633;28;20031;-72
2023/12/16 01:19:28;;;;;;;24.88;8.48;;;;;;;;;;5075565;28;20082;-72
2023/12/16 01:21:56;;;;;;;16.98;7.93;;;;;;;;;;5075685;28;20075;-72
2023/12/16 01:24:25;;;;;;;27.80;8.13;;;;;;;;;;5075547;28;20540;-72
2023/12/16 01:26:54;;;;;;;19.48;8.13;;;;;;;;;;5075539;28;20028;-72
2023/12/16 01:29:24;;;;;;;21.98;7.95;;;;;;;;;;5075391;28;20402;-72
2023/12/16 01:31:53;;;;;;;26.42;7.72;;;;;;;;;;5074926;28;20021;-72
2023/12/16 01:34:22;;;;;;;19.75;7.93;;;;;;;;;;5075104;28;20147;-72
2023/12/16 01:36:51;;;;;;;26.30;7.47;;;;;;;;;;5075366;28;20064;-72
2023/12/16 01:39:18;;;;;;;23.30;7.35;;;7.00;99.90;;;;;;5075128;28;20075;-73
2023/12/16 01:41:44;;;;;;;23.70;8.13;;;;;;;;;;5074876;28;20021;-72
2023/12/16 01:44:10;;;;;;;23.17;7.65;;;;;;;;;;5075166;28;20052;-72
2023/12/16 01:46:37;;;;;;;23.80;8.02;;;;;;;;;;5075148;28;20024;-73
2023/12/16 01:49:03;;;;;;;22.92;7.93;;;;;;;;;;5075149;28;20063;-73
2023/12/16 01:51:31;;;;;;;20.20;7.45;;;;;;;;;;5075003;28;20025;-72
2023/12/16 01:53:57;;;;;;;18.65;7.18;;;;;;;;;;5074922;28;20390;-72
2023/12/16 01:56:24;;;;;;;23.25;7.55;;;;;;;;;;5074934;28;20025;-72
2023/12/16 01:58:50;;;;;;;22.50;7.80;;;;;;;;;;5074781;28;20497;-72
2023/12/16 02:01:17;;;;;;;25.33;8.32;;;;;;;;;;5074971;28;20028;-72
2023/12/16 02:03:45;;;;;;;21.60;7.40;;;;;;;;;;5074733;28;20027;-72
2023/12/16 02:06:12;;;;;;;24.15;7.50;;;;;;;;;;5074808;28;20025;-73
2023/12/16 02:08:39;;;;;;;27.05;7.28;;;;;;;;;;5074697;28;20508;-72
2023/12/16 02:11:10;;;;;;;21.25;7.95;;;;;;;;;;5074158;28;20021;-73
2023/12/16 02:13:37;;;;;;;19.05;7.30;;;;;;;;;;5074742;28;20398;-72
2023/12/16 02:16:04;;;;;;;20.77;7.47;;;;;;;;;;5074727;28;20024;-72
2023/12/16 02:18:30;;;;;;;19.65;7.47;;;;;;;;;;5074471;28;20056;-72
2023/12/16 02:20:57;;;;;;;24.65;7.45;;;;;;;;;;5074102;28;20068;-72
2023/12/16 02:23:24;;;;;;;19.02;7.10;;;;;;;;;;5073975;28;20029;-72
2023/12/16 02:25:50;;;;;;;23.27;7.25;;;;;;;;;;5074365;28;20059;-72
2023/12/16 02:28:17;;;;;;;21.05;8.32;;;;;;;;;;5074136;28;20075;-72
2023/12/16 02:30:44;;;;;;;26.60;8.18;;;;;;;;;;5074353;28;20028;-72
2023/12/16 02:33:11;;;;;;;20.98;8.45;;;;;;;;;;5074118;28;20028;-72
2023/12/16 02:35:39;;;;;;;24.88;8.30;;;;;;;;;;5073641;28;20583;-72
2023/12/16 02:38:06;;;;;;;27.48;8.55;;;;;;;;;;5074173;28;20040;-72
2023/12/16 02:40:38;;;;;;;20.67;8.02;;;;;;;;;;5073725;28;20477;-73
2023/12/16 02:43:05;;;;;;;23.87;8.60;;;;;;;;;;5074229;28;20120;-72
2023/12/16 02:45:32;;;;;;;23.85;8.05;;;;;;;;;;5073914;28;20259;-72
2023/12/16 02:47:59;;;;;;;26.92;9.07;;;;;;;;;;5073829;28;20390;-72
2023/12/16 02:50:25;;;;;;;23.75;8.57;;;;;;;;;;5073874;28;20068;-72
2023/12/16 02:52:52;;;;;;;24.48;8.52;;;;;;;;;;5073850;28;20032;-73
2023/12/16 02:55:19;;;;;;;26.52;8.27;;;;;;;;;;5073674;28;20040;-73
2023/12/16 02:57:45;;;;;;;20.42;8.40;;;;;;;;;;5073795;28;20482;-73
2023/12/16 03:00:12;;;;;;;27.27;8.85;;;;;;;;;;5073518;28;20024;-72
2023/12/16 03:02:39;;;;;;;25.70;8.60;;;;;;;;;;5073763;28;20493;-72
2023/12/16 03:05:06;;;;;;;30.33;8.98;;;;;;;;;;5073288;28;20059;-72
2023/12/16 03:07:33;;;;;;;25.48;8.43;;;;;;;;;;5073527;28;20478;-72
2023/12/16 03:10:00;;;;;;;22.40;7.95;;;;;;;;;;5073156;28;20119;-72
2023/12/16 03:12:27;;;;;;;28.50;8.63;;;;;;;;;;5073584;28;20024;-72
2023/12/16 03:14:54;;;;;;;26.05;8.32;;;;;;;;;;5073113;28;20039;-72
2023/12/16 03:17:21;;;;;;;27.73;8.27;;;;;;;;;;5073103;28;20075;-72
2023/12/16 03:19:48;;;;;;;24.10;8.05;;;;;;;;;;5073417;28;20071;-72
2023/12/16 03:22:15;;;;;;;28.58;7.63;;;;;;;;;;5073407;28;20028;-72
2023/12/16 03:24:42;;;;;;;31.05;8.60;;;;;;;;;;5073490;28;20517;-72
2023/12/16 03:27:09;;;;;;;21.13;7.60;;;;;;;;;;5073128;28;20063;-72
2023/12/16 03:29:37;;;;;;;20.75;7.60;;;;;;;;;;5073452;28;20064;-72
2023/12/16 03:32:04;;;;;;;23.83;8.32;;;;;;;;;;5073287;28;20021;-72
2023/12/16 03:34:32;;;;;;;31.13;8.77;;;;;;;;;;5072630;28;20095;-72
2023/12/16 03:36:59;;;;;;;23.20;7.68;;;;;;;;;;5073284;28;20063;-72
2023/12/16 03:39:26;;;;;;;26.13;8.05;;;;;;;;;;5072780;28;20059;-71
2023/12/16 03:41:53;;;;;;;25.65;7.72;;;;;;;;;;5072832;28;20150;-73
2023/12/16 03:44:20;;;;;;;25.88;8.20;;;;;;;;;;5073229;28;20371;-73
2023/12/16 03:46:48;;;;;;;24.63;8.43;;;;;;;;;;5073319;28;20481;-72
2023/12/16 03:49:15;;;;;;;32.35;8.25;;;;;;;;;;5073208;28;20060;-72
2023/12/16 03:51:42;;;;;;;25.98;8.77;;;;;;;;;;5073276;28;20449;-72
2023/12/16 03:54:09;;;;;;;26.98;9.13;;;;;;;;;;5072829;28;20090;-72
2023/12/16 03:56:36;;;;;;;31.13;9.25;;;;;;;;;;5073285;28;20037;-72
2023/12/16 03:59:04;;;;;;;29.83;8.32;;;;;;;;;;5073079;28;20064;-72
2023/12/16 04:01:31;;;;;;;24.38;9.25;;;;;;;;;;5072652;28;20048;-72
2023/12/16 04:03:59;;;;;;;26.38;7.97;;;;;;;;;;5072668;28;20455;-72
2023/12/16 04:06:27;;;;;;;35.63;9.00;;;;;;;;;;5072953;28;20039;-72
2023/12/16 04:08:54;;;;;;;32.22;8.73;;;;;;;;;;5072583;28;20017;-72
2023/12/16 04:11:23;;;;;;;27.80;8.10;;;;;;;;;;5072998;28;20563;-72
2023/12/16 04:13:51;;;;;;;30.40;8.60;;;;;;;;;;5072852;28;20067;-72
2023/12/16 04:16:18;;;;;;;24.88;8.02;;;;;;;;;;5072902;28;20024;-72
2023/12/16 04:18:47;;;;;;;24.38;8.80;;;;;;;;;;5076040;28;20052;-72
2023/12/16 04:21:16;;;;;;;25.23;8.48;;;;;;;;;;5076387;28;20064;-73
2023/12/16 04:23:44;;;;;;;33.42;8.90;;;;;;;;;;5076734;28;20103;-73
2023/12/16 04:26:12;;;;;;;22.88;8.05;;;;;;;;;;5076430;28;20029;-72
2023/12/16 04:28:41;;;;;;;29.80;7.80;;;;;;;;;;5076681;28;20060;-73
2023/12/16 04:31:17;;;;;;;21.55;7.88;;;;;;;;;;5076635;28;20020;-73
2023/12/16 04:33:45;;;;;;;29.90;8.23;;;;;;;;;;5076328;28;20043;-72
2023/12/16 04:36:16;;;;;;;18.63;7.50;;;;;;;;;;5076537;28;20032;-72
2023/12/16 04:38:45;;;;;;;18.95;7.20;;;;;;;;;;5076053;28;20025;-73
2023/12/16 04:41:14;;;;;;;28.98;7.30;;;;;;;;;;5076246;28;20024;-72
2023/12/16 04:43:43;;;;;;;23.35;7.30;;;;;;;;;;5076403;28;20446;-72
2023/12/16 04:46:11;;;;;;;28.50;7.72;;;;;;;;;;5076394;28;20474;-72
2023/12/16 04:48:40;;;;;;;23.80;6.80;;;;;;;;;;5076216;28;20059;-72
2023/12/16 04:51:08;;;;;;;25.10;7.20;;;;;;;;;;5076196;28;20068;-72
2023/12/16 04:53:37;;;;;;;22.80;6.50;;;;;;;;;;5076103;28;20043;-72
2023/12/16 04:56:05;;;;;;;21.73;7.25;;;;;;;;;;5076061;28;20478;-72
2023/12/16 04:58:33;;;;;;;15.82;5.65;;;;;;;;;;5076029;28;20028;-72
2023/12/16 05:01:03;;;;;;;22.40;6.20;;;;;;;;;;5075490;28;20074;-72
2023/12/16 05:03:33;;;;;;;24.50;6.15;;;;;;;;;;5075899;28;20024;-73
2023/12/16 05:06:01;;;;;;;24.30;6.75;;;;;;;;;;5075924;28;20024;-73
2023/12/16 05:08:30;;;;;;;18.83;6.35;;;;;;;;;;5075881;28;20460;-73
2023/12/16 05:10:59;;;;;;;18.77;6.57;;;;;;;;;;5075746;28;20099;-73
2023/12/16 05:13:27;;;;;;;17.65;5.88;;;;;;;;;;5075868;28;20060;-73
2023/12/16 05:15:55;;;;;;;21.50;6.68;;;;;;;;;;5075779;28;20028;-73
2023/12/16 05:18:22;;;;;;;19.73;6.80;;;;;;;;;;5075775;28;20028;-72
2023/12/16 05:20:49;;;;;;;21.95;6.32;;;;;;;;;;5075571;28;20190;-73
2023/12/16 05:23:18;;;;;;;21.63;6.30;;;;;;;;;;5075653;28;20052;-73
2023/12/16 05:25:47;;;;;;;19.35;5.47;;;;;;;;;;5075251;28;20028;-73
2023/12/16 05:28:16;;;;;;;21.50;5.57;;;;;;;;;;5075187;28;20442;-73
2023/12/16 05:30:45;;;;;;;18.95;6.15;;;;;;;;;;5075425;28;20429;-73
2023/12/16 05:33:13;;;;;;;17.15;5.35;;;;;;;;;;5075482;28;20021;-72
2023/12/16 05:35:41;;;;;;;19.95;5.10;;;;;;;;;;5074971;28;20080;-73
2023/12/16 05:38:08;;;;;;;18.52;5.47;;;;;;;;;;5075392;28;20063;-72
2023/12/16 05:40:37;;;;;;;27.33;6.45;;;;;;;;;;5075192;28;20071;-73
2023/12/16 05:43:06;;;;;;;16.73;5.40;;;;;;;;;;5074948;28;20505;-72
2023/12/16 05:45:35;;;;;;;18.83;5.90;;;;;;;;;;5074862;28;20021;-72
2023/12/16 05:48:04;;;;;;;20.60;5.65;;;;;;;;;;5074697;28;20063;-73
2023/12/16 05:50:31;;;;;;;18.65;5.40;;;;;;;;;;5074658;28;20060;-73
2023/12/16 05:53:00;;;;;;;21.05;5.80;;;;;;;;;;5075039;28;20506;-73
2023/12/16 05:55:28;;;;;;;20.48;5.75;;;;;;;;;;5074946;28;20486;-72
2023/12/16 05:57:56;;;;;;;20.80;5.70;;;;;;;;;;5074883;28;20069;-72
2023/12/16 06:00:23;;;;;;;15.90;5.63;;;;;;;;;;5074887;28;20032;-73
2023/12/16 06:02:51;;;;;;;20.25;5.50;;;;;;;;;;5074386;28;20075;-73
2023/12/16 06:05:18;;;;;;;23.13;5.95;;;;;;;;;;5074669;28;20064;-72
2023/12/16 06:07:46;;;;;;;27.75;5.60;;;;;;;;;;5074715;28;20054;-72
2023/12/16 06:10:14;;;;;;;19.95;4.90;;;;;;;;;;5074278;28;20027;-73
2023/12/16 06:12:41;;;;;;;16.85;5.68;;;;;;;;;;5074711;28;20068;-72
2023/12/16 06:15:08;;;;;;;18.00;5.05;;;;;;;;;;5074801;28;20098;-72
2023/12/16 06:17:37;;;;;;;26.50;6.07;;;;;;;;;;5074421;28;20039;-73
2023/12/16 06:20:05;;;;;;;18.55;5.95;;;;;;;;;;5074028;28;20390;-72
2023/12/16 06:22:34;;;;;;;13.50;4.97;;;;;;;;;;5074121;28;20067;-73
2023/12/16 06:25:03;;;;;;;15.43;4.82;;;;;;;;;;5074401;28;20025;-72
2023/12/16 06:27:32;;;;;;;15.95;4.95;;;;;;;;;;5074307;28;20070;-73
2023/12/16 06:30:00;;;;;;;15.60;5.05;;;;;;;;;;5074314;28;20031;-74
2023/12/16 06:32:27;;;;;;;16.10;5.38;;;;;;;;;;5074190;28;20028;-73
2023/12/16 06:34:54;;;;;;;17.42;5.13;;;;;;;;;;5073961;28;20452;-72
2023/12/16 06:37:23;;;;;;;17.52;5.70;;;;;;;;;;5074258;28;20497;-72
2023/12/16 06:39:50;;;;;;;17.65;5.65;;;;;;;;;;5073178;28;20064;-72
2023/12/16 06:42:17;;;;;;;15.73;5.28;;;;;;;;;;5073950;28;20032;-73
2023/12/16 06:44:44;;;;;;;21.13;5.47;;;;;;;;;;5073716;28;20089;-72
2023/12/16 06:47:12;;;;;;;21.35;6.07;;;;;;;;;;5074077;28;20056;-73
2023/12/16 06:49:39;;;;;;;20.08;6.07;;;;;;;;;;5073901;28;20024;-73
2023/12/16 06:52:06;;;;;;;20.05;5.85;;;;;;;;;;5073771;28;20033;-72
2023/12/16 06:54:35;;;;;;;20.05;5.90;;;;;;;;;;5073756;28;20148;-72
2023/12/16 06:57:02;;;;;;;25.35;6.03;;;;;;;;;;5073513;28;20040;-72
2023/12/16 06:59:32;;;;;;;14.52;4.97;;;;;;;;;;5073739;28;20028;-73
2023/12/16 07:01:59;;;;;;;19.08;5.15;;;;;;;;;;5073639;28;20024;-73
2023/12/16 07:04:26;;;;;;;21.27;5.25;;;;;;;;;;5073721;28;20078;-72
2023/12/16 07:06:53;;;;;;;17.38;5.03;;;;;;;;;;5073709;28;20032;-72
2023/12/16 07:09:20;;;;;;;24.20;5.55;;;;;;;;;;5073626;28;20067;-73
2023/12/16 07:11:49;;;;;;;17.55;4.90;;;;;;;;;;5073621;28;20383;-73
2023/12/16 07:14:16;;;;;;;15.40;5.13;;;;;;;;;;5073576;28;20060;-73
2023/12/16 07:16:43;;;;;;;19.55;6.03;;;;;;;;;;5073709;28;20059;-73
2023/12/16 07:19:14;;;;;;;17.30;5.45;;;;;;;;;;5073592;28;20056;-72
2023/12/16 07:21:44;;;;;;;18.50;5.43;;;;;;;;;;5073073;28;20079;-73
2023/12/16 07:24:11;;;;;;;16.30;5.80;;;;;;;;;;5073163;28;20060;-72
2023/12/16 07:26:39;;;;;;;19.23;6.22;;;;;;;;;;5073337;28;20059;-72
2023/12/16 07:29:06;;;;;;;22.05;6.97;;;;;;;;;;5073277;28;20094;-72
2023/12/16 07:31:33;;;;;;;22.02;6.05;;;;;;;;;;5073433;28;20413;-72
2023/12/16 07:34:00;;;;;;;11.85;4.90;;;;;;;;;;5073071;28;20084;-73
2023/12/16 07:36:27;;;;;;;19.40;5.63;;;;;;;;;;5073320;28;20060;-73
2023/12/16 07:38:57;;;;;;;19.45;5.90;;;;;;;;;;5073311;28;20506;-73
2023/12/16 07:41:26;;;;;;;16.73;5.43;;;;;;;;;;5073323;28;20440;-73
2023/12/16 07:43:53;;;;;;;17.63;5.78;;;;;;;;;;5073118;28;20032;-72
2023/12/16 07:46:20;;;;;;;22.13;5.25;;;;;;;;;;5073306;28;20103;-72
2023/12/16 07:48:47;;;;;;;21.02;5.57;;;;;;;;;;5073375;28;20021;-72
2023/12/16 07:51:18;;;;;;;22.40;5.55;;;;;;;;;;5074490;28;20115;-72
2023/12/16 07:53:48;;;;;;;19.30;5.53;;;;;;;;;;5077410;28;20461;-72
2023/12/16 07:56:17;;;;;;;20.45;6.53;;;;;;;;;;5076912;28;20028;-72
2023/12/16 07:58:46;;;;;;;18.00;6.35;;;;;;;;;;5077340;28;20028;-73
2023/12/16 08:01:15;;;;;;;19.60;5.80;;;;;;;;;;5077289;28;20059;-72
2023/12/16 08:03:43;;;;;;;21.73;5.57;;;;;;;;;;5077029;28;20497;-72
2023/12/16 08:06:11;;;;;;;23.50;5.72;;;;;;;;;;5077029;28;20047;-73
2023/12/16 08:08:40;;;;;;;20.88;6.38;;;;;;;;;;5077036;28;20663;-72
2023/12/16 08:11:09;;;;;;;18.60;5.60;;;;;;;;;;5076440;28;20071;-73
2023/12/16 08:13:38;;;;;;;18.05;5.82;;;;;;;;;;5076858;28;20122;-72
2023/12/16 08:16:08;;;;;;;21.05;5.68;;;;;;;;;;5076786;28;20490;-73
2023/12/16 08:18:37;;;;;;;17.38;5.68;;;;;;;;;;5076817;28;20028;-73
2023/12/16 08:21:06;;;;;;;22.20;7.60;;;;;;;;;;5076895;28;20389;-73
2023/12/16 08:23:34;;;;;;;26.17;5.68;;;;;;;;;;5076599;28;20536;-72
2023/12/16 08:26:03;;;;;;;19.83;5.78;;;;;;;;;;5076747;28;20457;-72
2023/12/16 08:28:33;;;;;;;19.52;5.13;;;;;;;;;;5076601;28;20025;-73
2023/12/16 08:31:02;;;;;;;25.02;6.03;;;;;;;;;;5076591;28;20478;-72
2023/12/16 08:33:31;;;;;;;23.05;6.35;;;;;;;;;;5076566;28;20560;-73
2023/12/16 08:35:58;;;;;;;23.00;5.68;;;;;;;;;;5076093;28;20516;-73
2023/12/16 08:38:27;;;;;;;13.05;5.10;;;;;;;;;;5076260;28;20036;-72
2023/12/16 08:40:57;;;;;;;19.77;5.22;;;;;;;;;;5076301;28;20025;-72
2023/12/16 08:43:24;;;;;;;21.30;5.55;;;;;;;;;;5076276;28;20562;-73
2023/12/16 08:45:51;;;;;;;22.05;5.63;;;;;;;;;;5075946;28;20048;-73
2023/12/16 08:48:20;;;;;;;21.67;5.03;;;;;;;;;;5076198;28;20052;-72
2023/12/16 08:50:47;;;;;;;17.70;5.63;;;;;;;;;;5076195;28;20016;-72
2023/12/16 08:53:16;;;;;;;30.35;8.15;;;;;;;;;;5075736;28;20063;-73
2023/12/16 08:55:44;;;;;;;18.30;5.40;;;;;;;;;;5076247;28;20143;-72
2023/12/16 08:58:11;;;;;;;20.23;5.88;;;;;;;;;;5076138;28;20533;-73
2023/12/16 09:00:40;;;;;;;23.00;5.43;;;;;;;;;;5075974;28;20071;-72
2023/12/16 09:03:08;;;;;;;20.58;5.68;;;;;;;;;;5075212;28;20020;-73
2023/12/16 09:05:37;;;;;;;23.20;5.70;;;;;;;;;;5075819;28;20398;-72
2023/12/16 09:08:06;;;;;;;23.50;6.93;;;;;;;;;;5075852;28;20112;-72
2023/12/16 09:10:35;;;;;;;25.80;5.90;;;;;;;;;;5075554;28;20040;-72
2023/12/16 09:13:03;;;;;;;19.77;5.82;;;;;;;;;;5075816;28;20074;-73
2023/12/16 09:15:31;;;;;;;19.83;5.53;;;;;;;;;;5075798;28;20562;-72
2023/12/16 09:17:59;;;;;;;19.63;5.35;;;;;;;;;;5075731;28;20029;-73
2023/12/16 09:20:26;;;;;;;19.48;5.43;;;;;;;;;;5075738;28;20398;-72
2023/12/16 09:22:54;;;;;;;23.42;5.95;;;;;;;;;;5075244;28;20031;-72
2023/12/16 09:25:22;;;;;;;25.77;6.20;;;;;;;;;;5075388;28;20043;-72
2023/12/16 09:27:50;;;;;;;23.27;6.03;;;;;;;;;;5075036;28;20119;-72
2023/12/16 09:30:19;;;;;;;25.38;6.88;;;;;;;;;;5075520;28;20047;-72
2023/12/16 09:32:47;;;;;;;25.55;6.40;;;;;;;;;;5075477;28;20017;-72
2023/12/16 09:35:14;;;;;;;23.98;5.43;;;;;;;;;;5074681;28;20109;-72
2023/12/16 09:37:42;;;;;;;23.48;5.63;;;;;;;;;;5075402;28;20489;-72
2023/12/16 09:40:10;;;;;;;15.65;5.15;;;;;;;;;;5075359;28;20032;-73
2023/12/16 09:42:38;;;;;;;20.75;5.25;;;;;;;;;;5075295;28;20021;-72
2023/12/16 09:45:06;;;;;;;19.38;5.22;;;;;;;;;;5074989;28;20028;-72
2023/12/16 09:47:34;;;;;;;18.80;5.10;;;;;;;;;;5075137;28;20033;-73
2023/12/16 09:50:02;;;;;;;25.02;5.60;;;;;;;;;;5075168;28;20496;-72
2023/12/16 09:52:30;;;;;;;19.33;5.45;;;;;;;;;;5075144;28;20386;-72
2023/12/16 09:54:59;;;;;;;17.20;4.47;;;;;;;;;;5074971;28;20038;-72
2023/12/16 09:57:25;;;;;;;22.48;5.35;;;;;;;;;;5074836;28;20036;-72
2023/12/16 09:59:52;;;;;;;24.23;6.05;;;;;;;;;;5074900;28;20098;-72
2023/12/16 10:02:25;;;;;;;16.33;5.03;;;;;;;;;;5074889;28;20482;-72
2023/12/16 10:04:51;;;;;;;19.65;4.78;;;;;;;;;;5074721;28;20055;-72
2023/12/16 10:07:17;;;;;;;17.80;4.63;;;;;;;;;;5074867;28;20100;-72
2023/12/16 10:09:43;;;;;;;22.27;4.95;;;;;;;;;;5074831;28;20451;-72
2023/12/16 10:12:10;;;;;;;20.38;5.80;;;;;;;;;;5074312;28;20028;-72
2023/12/16 10:14:51;;;;;;;24.30;6.50;;;;;;;;;;5073221;28;20037;-71
2023/12/16 10:17:20;;;;;;;19.88;5.60;;;;;;;;;;5074522;28;20062;-72
2023/12/16 10:19:49;;;;;;;29.67;6.00;;;;;;;;;;5074704;28;20035;-72
2023/12/16 10:22:15;;;;;;;31.20;11.27;;;;;;;;;;5074467;28;20028;-72
2023/12/16 10:24:44;;;;;;;44.65;19.42;;;;;;;;;;5074359;28;20032;-72
2023/12/16 10:27:13;;;;;;;35.13;16.13;;;;;;;;;;5074751;28;20024;-72
2023/12/16 10:29:42;;;;;;;13.32;5.10;;;;;;;;;;5074203;28;20086;-72
2023/12/16 10:32:11;;;;;;;22.45;5.22;;;;;;;;;;5075427;28;20115;-72
2023/12/16 10:34:41;;;;;;;23.90;5.10;;;;;;;;;;5074679;28;20573;-72
2023/12/16 10:37:11;;;;;;;20.42;4.97;;;;;;;;;;5073672;28;20031;-72
2023/12/16 10:39:42;;;;;;;16.30;5.15;;;;;;;;;;5074636;28;20120;-72
2023/12/16 10:42:11;;;;;;;19.50;4.85;;;;;;;;;;5074200;28;20028;-72
2023/12/16 10:44:42;;;;;;;17.85;4.75;;;;;;;;;;5073484;28;20197;-72
2023/12/16 10:47:12;;;;;;;22.83;4.85;;;;;;;;;;5073920;28;20065;-72
2023/12/16 10:49:46;;;;;;;19.90;4.97;;;;;;;;;;5073509;28;20044;-71
2023/12/16 10:52:19;;;;;;;19.60;4.63;;;;;;;;;;5073938;28;20013;-73
2023/12/16 10:54:52;;;;;;;24.30;5.80;;;;;;;;;;5073449;28;20016;-72
2023/12/16 10:57:23;;;;;;;;;;;;;;;;;;5073812;28;20479;-73
2023/12/16 11:00:09;;;;;;;16.83;4.18;;;;;;;;;;5073792;28;20274;-72
2023/12/16 11:02:43;;;;;;;22.08;6.10;;;;;;;;;;5073696;28;20063;-72
2023/12/16 11:05:20;;;;;;;18.58;6.07;;;;;;;;;;5073504;28;20031;-73
2023/12/16 11:07:51;;;;;;;18.83;4.85;;;;;;;;;;5073766;28;20079;-73
2023/12/16 11:10:20;;;;;;;20.48;4.60;;;;;;;;;;5073680;28;20060;-72
2023/12/16 11:12:58;;;;;;;21.75;5.35;;;;;;;;;;5073620;28;20024;-72
2023/12/16 11:15:34;;;;;;;21.35;4.30;;;;;;;;;;5073499;28;20071;-72
2023/12/16 11:18:08;;;;;;;18.70;5.20;;;;;;;;;;5073577;28;20111;-72
2023/12/16 11:20:40;;;;;;;19.85;4.90;;;;;;;;;;5073100;28;20059;-72
2023/12/16 11:23:09;;;;;;;17.55;4.38;;;;;;;;;;5073058;28;20035;-72
2023/12/16 11:25:43;;;;;;;16.92;4.47;;;;;;;;;;5072952;28;20056;-72
2023/12/16 11:28:13;;;;;;;22.80;5.72;;;;;;;;;;5073424;28;20035;-72
2023/12/16 11:30:42;;;;;;;24.67;5.20;;;;;;;;;;5072765;28;20082;-73
2023/12/16 11:33:11;;;;;;;18.33;4.35;;;;;;;;;;5073376;28;20029;-72
2023/12/16 11:38:37;;;;;;;17.35;4.85;;;;;;;;;;5111267;27;20137;-72
2023/12/16 11:41:05;;;;;;;20.75;4.57;;;;;;;;;;5110179;28;20036;-73
2023/12/16 11:43:54;;;;;;;18.30;5.10;;;;;;;;;;5111283;28;20491;-73
2023/12/16 11:46:42;;;;;;;24.67;5.18;;;;;;;;;;5111196;28;20066;-72
2023/12/16 11:49:14;;;;;;;22.38;5.05;;;;;;;;;;5111045;28;20036;-72
2023/12/16 11:51:42;;;;;;;24.80;5.35;;;;;;;;;;5111007;28;20032;-72
2023/12/16 11:54:12;;;;;;;21.27;4.53;;;;;;;;;;5110944;28;20509;-71
2023/12/16 11:56:41;;;;;;;27.23;5.40;;;;;;;;;;5110865;28;20024;-71
2023/12/16 11:59:12;;;;;;;23.20;5.68;;;;;;;;;;5110924;28;20477;-71
2023/12/16 12:01:40;;;;;;;26.48;5.03;;;;;;;;;;5110417;28;20031;-71
2023/12/16 12:04:08;;;;;;;28.10;5.28;;;;;;;;;;5110730;28;20024;-72
2023/12/16 12:06:36;;;;;;;29.52;5.72;;;;;;;;;;5110773;28;20042;-71
2023/12/16 12:09:03;;;;;;;19.73;5.15;;;;;;;;;;5110343;28;20031;-71
2023/12/16 12:11:30;;;;;;;25.30;5.18;;;;;;;;;;5110605;28;20028;-72
2023/12/16 12:13:57;;;;;;;22.65;5.75;;;;;;;;;;5110509;28;20079;-71
2023/12/16 12:16:28;;;;;;;23.60;5.28;;;;;;;;;;5110552;28;20092;-71
2023/12/16 12:18:56;;;;;;;26.67;5.00;;;;;;;;;;5110629;28;20427;-72
2023/12/16 12:21:25;;;;;;;21.15;5.82;;;;;;;;;;5110616;28;20050;-71
2023/12/16 12:23:54;;;;;;;30.08;6.00;;;;;;;;;;5110446;28;20478;-72
2023/12/16 12:26:23;;;;;;;21.40;6.00;;;;;;;;;;5110375;28;20024;-72
2023/12/16 12:29:02;;;;;;;22.85;5.82;;;;;;;;;;5110330;28;20559;-71
2023/12/16 12:31:31;;;;;;;18.95;5.32;;;;;;;;;;5110240;27;20557;-72
2023/12/16 12:33:58;;;;;;;23.45;6.00;;;;;;;;;;5110251;28;20027;-71
2023/12/16 12:36:25;;;;;;;21.42;5.90;;;;;;;;;;5110076;28;20055;-71
2023/12/16 12:38:54;;;;;;;24.50;5.80;;;;;;;;;;5109612;28;20390;-72
2023/12/16 12:41:21;;;;;;;21.70;5.85;;;;;;;;;;5110015;28;20058;-72
2023/12/16 12:43:50;;;;;;;22.27;6.22;;;;;;;;;;5109952;28;20066;-72
2023/12/16 12:46:17;;;;;;;21.33;5.25;;;;;;;;;;5109770;28;20119;-71
2023/12/16 12:48:56;;;;;;;28.02;6.45;;;;;;;;;;5101515;28;20078;-72
2023/12/16 12:51:26;;;;;;;20.77;5.78;;;;;;;;;;5096307;28;20032;-72
2023/12/16 12:53:59;;;;;;;20.42;6.40;;;;;;;;;;5096268;28;20032;-72
2023/12/16 12:56:26;;;;;;;32.53;6.60;;;;;;;;;;5097234;28;20073;-71
2023/12/16 12:58:57;;;;;;;21.38;7.20;;;;;;;;;;5096051;28;20035;-72
2023/12/16 13:01:25;;;;;;;27.15;5.80;;;;;;;;;;5096238;28;20477;-72
2023/12/16 13:03:54;;;;;;;24.08;5.70;;;;;;;;;;5096027;28;20032;-72
2023/12/16 13:06:22;;;;;;;21.70;6.47;;;;;;;;;;5096311;28;20492;-71
2023/12/16 13:08:52;;;;;;;20.38;5.57;;;;;;;;;;5096037;28;20534;-71
2023/12/16 13:11:22;;;;;;;31.38;6.03;;;;;;;;;;5096117;28;20204;-72
2023/12/16 13:13:48;;;;;;;26.83;7.10;;;;;;;;;;5096039;28;20489;-71
2023/12/16 13:16:14;;;;;;;25.98;5.78;;;;;;;;;;5095757;28;20085;-71
2023/12/16 13:18:42;;;;;;;21.30;5.90;;;;;;;;;;5095528;28;20036;-70
2023/12/16 13:21:08;;;;;;;20.20;6.43;;;;;;;;;;5095459;28;20028;-71
2023/12/16 13:23:34;;;;;;;29.55;6.68;;;;;;;;;;5095735;28;20512;-71
2023/12/16 13:26:00;;;;;;;25.13;7.07;;;;;;;;;;5095738;28;20047;-70
2023/12/16 13:28:26;;;;;;;25.33;6.28;;;;;;;;;;5095787;28;20039;-71
2023/12/16 13:30:52;;;;;;;28.23;7.10;;;;;;;;;;5095734;28;20032;-70
2023/12/16 13:33:19;;;;;;;23.52;6.95;;;;;;;;;;5095430;28;20036;-71
2023/12/16 13:35:49;;;;;;;26.70;7.68;;;;;;;;;;5095173;28;20024;-71
2023/12/16 13:38:18;;;;;;;19.95;6.00;;;;;;;;;;5095381;28;20036;-71
2023/12/16 13:40:48;;;;;;;28.80;7.25;;;;;;;;;;5095357;28;20055;-71
2023/12/16 13:43:19;;;;;;;25.70;7.53;;;;;;;;;;5094932;28;20020;-71
2023/12/16 13:45:46;;;;;;;26.35;7.60;;;;;;;;;;5094796;28;20021;-71
2023/12/16 13:48:13;;;;;;;20.35;6.30;;;;;;;;;;5095129;28;20020;-71
2023/12/16 13:50:40;;;;;;;27.02;7.43;;;;;;;;;;5095173;28;20059;-72
2023/12/16 13:53:07;;;;;;;25.88;8.38;;;;;;;;;;5095154;28;20028;-70
2023/12/16 13:55:34;;;;;;;26.85;8.60;;;;;;;;;;5095007;28;20036;-70
2023/12/16 13:58:03;;;;;;;25.52;8.27;;;;;;;;;;5095062;28;20032;-70
2023/12/16 14:00:32;;;;;;;29.35;8.57;;;;;;;;;;5093985;28;20020;-73
2023/12/16 14:03:01;;;;;;;32.85;8.43;;;;;;;;;;5094919;28;20062;-72
2023/12/16 14:05:29;;;;;;;27.60;8.45;;;;;;;;;;5094853;28;20031;-72
2023/12/16 14:07:58;;;;;;;27.73;8.48;;;;;;;;;;5094877;28;20460;-72
2023/12/16 14:10:27;;;;;;;32.97;8.07;;;;;;;;;;5094861;28;20024;-72
2023/12/16 14:12:56;;;;;;;27.60;7.90;;;;;;;;;;5094932;28;20028;-72
2023/12/16 14:15:25;;;;;;;31.77;8.27;;;;;;;;;;5094716;28;20489;-70
2023/12/16 14:17:55;;;;;;;39.35;9.63;;;;;;;;;;5094679;28;20375;-71
2023/12/16 14:20:23;;;;;;;34.92;9.40;;;;;;;;;;5094630;28;20081;-72
2023/12/16 14:22:50;;;;;;;30.52;8.60;;;;;;;;;;5094665;28;20031;-72
2023/12/16 14:25:21;;;;;;;28.77;8.32;;;;;;;;;;5094629;28;20051;-72
2023/12/16 14:27:52;;;;;;;32.72;9.27;;;;;;;;;;5094666;28;20020;-72
2023/12/16 14:30:23;;;;;;;30.27;8.95;;;;;;;;;;5094568;28;20527;-72
2023/12/16 14:32:55;;;;;;;25.50;8.60;;;;;;;;;;5094532;28;20434;-71
2023/12/16 14:35:23;;;;;;;31.42;9.10;;;;;;;;;;5094251;28;20068;-71
2023/12/16 14:37:54;;;;;;;28.40;9.93;;;;;;;;;;5094336;28;20044;-71
2023/12/16 14:40:26;;;;;;;33.72;10.40;;;;;;;;;;5094477;28;20504;-71
2023/12/16 14:42:58;;;;;;;33.50;10.77;;;;;;;;;;5094595;28;20111;-72